sensor_id;sensor_type;location;lat;lon;timestamp;P1;P2;P0
78063;PMS5003;67429;51.596;-3.264;2023-08-06T00:00:09;3;3;
78063;PMS5003;67429;51.596;-3.264;2023-08-06T00:02:35;3;3;
78063;PMS5003;67429;51.596;-3.264;2023-08-06T00:05:00;3;3;
78063;PMS5003;67429;51.596;-3.264;2023-08-06T00:07:26;4;3;
78063;PMS5003;67429;51.596;-3.264;2023-08-06T00:09:51;3;3;
78063;PMS5003;67429;51.596;-3.264;2023-08-06T00:12:17;2;2;
78063;PMS5003;67429;51.596;-3.264;2023-08-06T00:14:43;4;4;
78063;PMS5003;67429;51.596;-3.264;2023-08-06T00:17:08;5;4;
78063;PMS5003;67429;51.596;-3.264;2023-08-06T00:19:34;3;3;
78063;PMS5003;67429;51.596;-3.264;2023-08-06T00:22:00;3;3;
78063;PMS5003;67429;51.596;-3.264;2023-08-06T00:24:25;4;4;
78063;PMS5003;67429;51.596;-3.264;2023-08-06T00:26:51;5;5;
78063;PMS5003;67429;51.596;-3.264;2023-08-06T00:29:16;4;4;
78063;PMS5003;67429;51.596;-3.264;2023-08-06T00:31:42;2;2;
78063;PMS5003;67429;51.596;-3.264;2023-08-06T00:34:08;3;3;
78063;PMS5003;67429;51.596;-3.264;2023-08-06T00:36:33;2;2;
78063;PMS5003;67429;51.596;-3.264;2023-08-06T00:38:59;4;4;
78063;PMS5003;67429;51.596;-3.264;2023-08-06T00:41:25;3;3;
78063;PMS5003;67429;51.596;-3.264;2023-08-06T00:43:50;3;3;
78063;PMS5003;67429;51.596;-3.264;2023-08-06T00:46:16;4;3;
78063;PMS5003;67429;51.596;-3.264;2023-08-06T00:48:41;4;3;
78063;PMS5003;67429;51.596;-3.264;2023-08-06T00:51:07;3;2;
78063;PMS5003;67429;51.596;-3.264;2023-08-06T00:53:32;4;4;
78063;PMS5003;67429;51.596;-3.264;2023-08-06T00:55:58;2;2;
78063;PMS5003;67429;51.596;-3.264;2023-08-06T00:58:24;4;4;
78063;PMS5003;67429;51.596;-3.264;2023-08-06T01:00:49;4;4;
78063;PMS5003;67429;51.596;-3.264;2023-08-06T01:03:15;5;4;
78063;PMS5003;67429;51.596;-3.264;2023-08-06T01:05:41;3;3;
78063;PMS5003;67429;51.596;-3.264;2023-08-06T01:08:09;3;3;
78063;PMS5003;67429;51.596;-3.264;2023-08-06T01:10:36;4;3;
78063;PMS5003;67429;51.596;-3.264;2023-08-06T01:13:01;4;3;
78063;PMS5003;67429;51.596;-3.264;2023-08-06T01:15:24;2;2;
78063;PMS5003;67429;51.596;-3.264;2023-08-06T01:17:49;5;5;
78063;PMS5003;67429;51.596;-3.264;2023-08-06T01:20:14;4;4;
78063;PMS5003;67429;51.596;-3.264;2023-08-06T01:22:40;4;4;
78063;PMS5003;67429;51.596;-3.264;2023-08-06T01:25:06;3;3;
78063;PMS5003;67429;51.596;-3.264;2023-08-06T01:27:33;5;4;
78063;PMS5003;67429;51.596;-3.264;2023-08-06T01:29:59;4;4;
78063;PMS5003;67429;51.596;-3.264;2023-08-06T01:32:23;4;4;
78063;PMS5003;67429;51.596;-3.264;2023-08-06T01:34:48;4;3;
78063;PMS5003;67429;51.596;-3.264;2023-08-06T01:37:14;3;3;
78063;PMS5003;67429;51.596;-3.264;2023-08-06T01:39:40;3;3;
78063;PMS5003;67429;51.596;-3.264;2023-08-06T01:42:05;4;4;
78063;PMS5003;67429;51.596;-3.264;2023-08-06T01:44:31;5;5;
78063;PMS5003;67429;51.596;-3.264;2023-08-06T01:46:56;3;3;
78063;PMS5003;67429;51.596;-3.264;2023-08-06T01:49:22;4;4;
78063;PMS5003;67429;51.596;-3.264;2023-08-06T01:51:47;3;3;
78063;PMS5003;67429;51.596;-3.264;2023-08-06T01:54:13;5;5;
78063;PMS5003;67429;51.596;-3.264;2023-08-06T01:56:39;3;3;
78063;PMS5003;67429;51.596;-3.264;2023-08-06T01:59:04;5;5;
78063;PMS5003;67429;51.596;-3.264;2023-08-06T02:01:30;4;3;
78063;PMS5003;67429;51.596;-3.264;2023-08-06T02:03:56;6;6;
78063;PMS5003;67429;51.596;-3.264;2023-08-06T02:06:21;5;5;
78063;PMS5003;67429;51.596;-3.264;2023-08-06T02:08:47;5;5;
78063;PMS5003;67429;51.596;-3.264;2023-08-06T02:11:12;5;4;
78063;PMS5003;67429;51.596;-3.264;2023-08-06T02:13:38;4;3;
78063;PMS5003;67429;51.596;-3.264;2023-08-06T02:16:06;4;4;
78063;PMS5003;67429;51.596;-3.264;2023-08-06T02:18:29;4;4;
78063;PMS5003;67429;51.596;-3.264;2023-08-06T02:20:55;5;5;
78063;PMS5003;67429;51.596;-3.264;2023-08-06T02:23:21;5;5;
78063;PMS5003;67429;51.596;-3.264;2023-08-06T02:25:46;5;5;
78063;PMS5003;67429;51.596;-3.264;2023-08-06T02:28:12;6;5;
78063;PMS5003;67429;51.596;-3.264;2023-08-06T02:30:38;4;4;
78063;PMS5003;67429;51.596;-3.264;2023-08-06T02:33:03;8;7;
78063;PMS5003;67429;51.596;-3.264;2023-08-06T02:35:29;5;5;
78063;PMS5003;67429;51.596;-3.264;2023-08-06T02:37:55;5;5;
78063;PMS5003;67429;51.596;-3.264;2023-08-06T02:40:20;4;3;
78063;PMS5003;67429;51.596;-3.264;2023-08-06T02:42:46;6;5;
78063;PMS5003;67429;51.596;-3.264;2023-08-06T02:45:12;4;4;
78063;PMS5003;67429;51.596;-3.264;2023-08-06T02:47:37;7;6;
78063;PMS5003;67429;51.596;-3.264;2023-08-06T02:50:03;4;4;
78063;PMS5003;67429;51.596;-3.264;2023-08-06T02:52:28;4;4;
78063;PMS5003;67429;51.596;-3.264;2023-08-06T02:54:54;6;6;
78063;PMS5003;67429;51.596;-3.264;2023-08-06T02:57:19;5;3;
78063;PMS5003;67429;51.596;-3.264;2023-08-06T02:59:45;6;5;
78063;PMS5003;67429;51.596;-3.264;2023-08-06T03:02:10;7;4;
78063;PMS5003;67429;51.596;-3.264;2023-08-06T03:04:36;4;4;
78063;PMS5003;67429;51.596;-3.264;2023-08-06T03:07:02;7;7;
78063;PMS5003;67429;51.596;-3.264;2023-08-06T03:09:27;6;6;
78063;PMS5003;67429;51.596;-3.264;2023-08-06T03:11:53;4;4;
78063;PMS5003;67429;51.596;-3.264;2023-08-06T03:14:18;6;5;
78063;PMS5003;67429;51.596;-3.264;2023-08-06T03:16:44;4;4;
78063;PMS5003;67429;51.596;-3.264;2023-08-06T03:19:10;6;6;
78063;PMS5003;67429;51.596;-3.264;2023-08-06T03:21:36;9;8;
78063;PMS5003;67429;51.596;-3.264;2023-08-06T03:24:01;7;5;
78063;PMS5003;67429;51.596;-3.264;2023-08-06T03:26:26;7;6;
78063;PMS5003;67429;51.596;-3.264;2023-08-06T03:28:52;6;5;
78063;PMS5003;67429;51.596;-3.264;2023-08-06T03:31:18;5;5;
78063;PMS5003;67429;51.596;-3.264;2023-08-06T03:33:43;5;4;
78063;PMS5003;67429;51.596;-3.264;2023-08-06T03:36:09;5;5;
78063;PMS5003;67429;51.596;-3.264;2023-08-06T03:38:35;4;4;
78063;PMS5003;67429;51.596;-3.264;2023-08-06T03:41:00;4;4;
78063;PMS5003;67429;51.596;-3.264;2023-08-06T03:43:26;5;5;
78063;PMS5003;67429;51.596;-3.264;2023-08-06T03:45:52;5;5;
78063;PMS5003;67429;51.596;-3.264;2023-08-06T03:48:17;3;3;
78063;PMS5003;67429;51.596;-3.264;2023-08-06T03:50:43;4;4;
78063;PMS5003;67429;51.596;-3.264;2023-08-06T03:53:08;4;4;
78063;PMS5003;67429;51.596;-3.264;2023-08-06T03:55:34;6;5;
78063;PMS5003;67429;51.596;-3.264;2023-08-06T03:58:00;6;5;
78063;PMS5003;67429;51.596;-3.264;2023-08-06T04:00:25;3;3;
78063;PMS5003;67429;51.596;-3.264;2023-08-06T04:02:51;6;6;
78063;PMS5003;67429;51.596;-3.264;2023-08-06T04:05:17;7;7;
78063;PMS5003;67429;51.596;-3.264;2023-08-06T04:07:42;3;3;
78063;PMS5003;67429;51.596;-3.264;2023-08-06T04:10:08;4;4;
78063;PMS5003;67429;51.596;-3.264;2023-08-06T04:12:33;5;5;
78063;PMS5003;67429;51.596;-3.264;2023-08-06T04:15:00;4;4;
78063;PMS5003;67429;51.596;-3.264;2023-08-06T04:17:25;4;4;
78063;PMS5003;67429;51.596;-3.264;2023-08-06T04:19:51;7;4;
78063;PMS5003;67429;51.596;-3.264;2023-08-06T04:22:16;5;4;
78063;PMS5003;67429;51.596;-3.264;2023-08-06T04:24:42;4;4;
78063;PMS5003;67429;51.596;-3.264;2023-08-06T04:27:07;6;6;
78063;PMS5003;67429;51.596;-3.264;2023-08-06T04:29:33;4;4;
78063;PMS5003;67429;51.596;-3.264;2023-08-06T04:31:58;3;3;
78063;PMS5003;67429;51.596;-3.264;2023-08-06T04:34:24;4;4;
78063;PMS5003;67429;51.596;-3.264;2023-08-06T04:36:50;4;4;
78063;PMS5003;67429;51.596;-3.264;2023-08-06T04:39:15;6;4;
78063;PMS5003;67429;51.596;-3.264;2023-08-06T04:41:41;6;6;
78063;PMS5003;67429;51.596;-3.264;2023-08-06T04:44:06;4;4;
78063;PMS5003;67429;51.596;-3.264;2023-08-06T04:46:32;5;5;
78063;PMS5003;67429;51.596;-3.264;2023-08-06T04:48:57;4;3;
78063;PMS5003;67429;51.596;-3.264;2023-08-06T04:51:23;4;3;
78063;PMS5003;67429;51.596;-3.264;2023-08-06T04:53:48;6;5;
78063;PMS5003;67429;51.596;-3.264;2023-08-06T04:56:14;4;3;
78063;PMS5003;67429;51.596;-3.264;2023-08-06T04:58:40;5;4;
78063;PMS5003;67429;51.596;-3.264;2023-08-06T05:01:05;3;3;
78063;PMS5003;67429;51.596;-3.264;2023-08-06T05:03:31;4;3;
78063;PMS5003;67429;51.596;-3.264;2023-08-06T05:05:57;4;3;
78063;PMS5003;67429;51.596;-3.264;2023-08-06T05:08:22;3;3;
78063;PMS5003;67429;51.596;-3.264;2023-08-06T05:10:48;4;4;
78063;PMS5003;67429;51.596;-3.264;2023-08-06T05:13:14;5;3;
78063;PMS5003;67429;51.596;-3.264;2023-08-06T05:15:39;3;3;
78063;PMS5003;67429;51.596;-3.264;2023-08-06T05:18:05;4;4;
78063;PMS5003;67429;51.596;-3.264;2023-08-06T05:20:30;3;3;
78063;PMS5003;67429;51.596;-3.264;2023-08-06T05:22:56;2;2;
78063;PMS5003;67429;51.596;-3.264;2023-08-06T05:25:21;4;3;
78063;PMS5003;67429;51.596;-3.264;2023-08-06T05:27:47;2;2;
78063;PMS5003;67429;51.596;-3.264;2023-08-06T05:30:13;2;2;
78063;PMS5003;67429;51.596;-3.264;2023-08-06T05:32:38;4;4;
78063;PMS5003;67429;51.596;-3.264;2023-08-06T05:35:04;3;3;
78063;PMS5003;67429;51.596;-3.264;2023-08-06T05:37:29;3;3;
78063;PMS5003;67429;51.596;-3.264;2023-08-06T05:39:55;4;4;
78063;PMS5003;67429;51.596;-3.264;2023-08-06T05:42:21;3;3;
78063;PMS5003;67429;51.596;-3.264;2023-08-06T05:44:46;4;3;
78063;PMS5003;67429;51.596;-3.264;2023-08-06T05:47:12;3;3;
78063;PMS5003;67429;51.596;-3.264;2023-08-06T05:49:38;2;2;
78063;PMS5003;67429;51.596;-3.264;2023-08-06T05:52:03;3;3;
78063;PMS5003;67429;51.596;-3.264;2023-08-06T05:54:29;2;2;
78063;PMS5003;67429;51.596;-3.264;2023-08-06T05:56:54;2;2;
78063;PMS5003;67429;51.596;-3.264;2023-08-06T05:59:20;3;2;
78063;PMS5003;67429;51.596;-3.264;2023-08-06T06:01:45;2;2;
78063;PMS5003;67429;51.596;-3.264;2023-08-06T06:04:11;3;2;
78063;PMS5003;67429;51.596;-3.264;2023-08-06T06:06:37;2;1;
78063;PMS5003;67429;51.596;-3.264;2023-08-06T06:09:02;2;2;
78063;PMS5003;67429;51.596;-3.264;2023-08-06T06:11:28;2;2;
78063;PMS5003;67429;51.596;-3.264;2023-08-06T06:13:53;2;2;
78063;PMS5003;67429;51.596;-3.264;2023-08-06T06:16:19;2;2;
78063;PMS5003;67429;51.596;-3.264;2023-08-06T06:18:44;2;2;
78063;PMS5003;67429;51.596;-3.264;2023-08-06T06:21:10;2;2;
78063;PMS5003;67429;51.596;-3.264;2023-08-06T06:23:35;1;1;
78063;PMS5003;67429;51.596;-3.264;2023-08-06T06:26:01;1;1;
78063;PMS5003;67429;51.596;-3.264;2023-08-06T06:28:26;1;1;
78063;PMS5003;67429;51.596;-3.264;2023-08-06T06:30:52;1;1;
78063;PMS5003;67429;51.596;-3.264;2023-08-06T06:33:18;2;2;
78063;PMS5003;67429;51.596;-3.264;2023-08-06T06:35:43;2;2;
78063;PMS5003;67429;51.596;-3.264;2023-08-06T06:38:09;1;1;
78063;PMS5003;67429;51.596;-3.264;2023-08-06T06:40:34;2;2;
78063;PMS5003;67429;51.596;-3.264;2023-08-06T06:43:00;2;2;
78063;PMS5003;67429;51.596;-3.264;2023-08-06T06:45:25;2;2;
78063;PMS5003;67429;51.596;-3.264;2023-08-06T06:47:51;2;2;
78063;PMS5003;67429;51.596;-3.264;2023-08-06T06:50:16;2;2;
78063;PMS5003;67429;51.596;-3.264;2023-08-06T06:52:42;2;1;
78063;PMS5003;67429;51.596;-3.264;2023-08-06T06:55:08;1;1;
78063;PMS5003;67429;51.596;-3.264;2023-08-06T06:57:33;1;1;
78063;PMS5003;67429;51.596;-3.264;2023-08-06T06:59:59;2;1;
78063;PMS5003;67429;51.596;-3.264;2023-08-06T07:02:24;2;2;
78063;PMS5003;67429;51.596;-3.264;2023-08-06T07:04:50;2;2;
78063;PMS5003;67429;51.596;-3.264;2023-08-06T07:07:15;1;1;
78063;PMS5003;67429;51.596;-3.264;2023-08-06T07:09:41;3;3;
78063;PMS5003;67429;51.596;-3.264;2023-08-06T07:12:07;1;1;
78063;PMS5003;67429;51.596;-3.264;2023-08-06T07:14:32;1;1;
78063;PMS5003;67429;51.596;-3.264;2023-08-06T07:16:57;3;1;
78063;PMS5003;67429;51.596;-3.264;2023-08-06T07:19:23;1;1;
78063;PMS5003;67429;51.596;-3.264;2023-08-06T07:21:48;1;1;
78063;PMS5003;67429;51.596;-3.264;2023-08-06T07:24:14;1;1;
78063;PMS5003;67429;51.596;-3.264;2023-08-06T07:26:39;2;2;
78063;PMS5003;67429;51.596;-3.264;2023-08-06T07:29:05;3;2;
78063;PMS5003;67429;51.596;-3.264;2023-08-06T07:31:31;1;1;
78063;PMS5003;67429;51.596;-3.264;2023-08-06T07:33:56;1;1;
78063;PMS5003;67429;51.596;-3.264;2023-08-06T07:36:21;1;1;
78063;PMS5003;67429;51.596;-3.264;2023-08-06T07:38:47;1;1;
78063;PMS5003;67429;51.596;-3.264;2023-08-06T07:41:13;2;2;
78063;PMS5003;67429;51.596;-3.264;2023-08-06T07:43:38;2;2;
78063;PMS5003;67429;51.596;-3.264;2023-08-06T07:46:04;2;2;
78063;PMS5003;67429;51.596;-3.264;2023-08-06T07:48:29;2;2;
78063;PMS5003;67429;51.596;-3.264;2023-08-06T07:50:55;2;2;
78063;PMS5003;67429;51.596;-3.264;2023-08-06T07:53:20;3;2;
78063;PMS5003;67429;51.596;-3.264;2023-08-06T07:55:47;1;1;
78063;PMS5003;67429;51.596;-3.264;2023-08-06T07:58:11;2;2;
78063;PMS5003;67429;51.596;-3.264;2023-08-06T08:00:37;0;0;
78063;PMS5003;67429;51.596;-3.264;2023-08-06T08:03:02;1;1;
78063;PMS5003;67429;51.596;-3.264;2023-08-06T08:05:28;0;0;
78063;PMS5003;67429;51.596;-3.264;2023-08-06T08:07:53;2;2;
78063;PMS5003;67429;51.596;-3.264;2023-08-06T08:10:18;2;2;
78063;PMS5003;67429;51.596;-3.264;2023-08-06T08:12:44;2;2;
78063;PMS5003;67429;51.596;-3.264;2023-08-06T08:15:10;2;1;
78063;PMS5003;67429;51.596;-3.264;2023-08-06T08:17:35;2;0;
78063;PMS5003;67429;51.596;-3.264;2023-08-06T08:20:01;2;2;
78063;PMS5003;67429;51.596;-3.264;2023-08-06T08:22:26;1;1;
78063;PMS5003;67429;51.596;-3.264;2023-08-06T08:24:51;1;1;
78063;PMS5003;67429;51.596;-3.264;2023-08-06T08:27:17;0;0;
78063;PMS5003;67429;51.596;-3.264;2023-08-06T08:29:43;1;1;
78063;PMS5003;67429;51.596;-3.264;2023-08-06T08:32:08;1;1;
78063;PMS5003;67429;51.596;-3.264;2023-08-06T08:34:34;1;1;
78063;PMS5003;67429;51.596;-3.264;2023-08-06T08:36:59;0;0;
78063;PMS5003;67429;51.596;-3.264;2023-08-06T08:39:24;1;1;
78063;PMS5003;67429;51.596;-3.264;2023-08-06T08:41:50;1;1;
78063;PMS5003;67429;51.596;-3.264;2023-08-06T08:44:16;1;1;
78063;PMS5003;67429;51.596;-3.264;2023-08-06T08:46:41;0;0;
78063;PMS5003;67429;51.596;-3.264;2023-08-06T08:49:06;0;0;
78063;PMS5003;67429;51.596;-3.264;2023-08-06T08:51:32;1;1;
78063;PMS5003;67429;51.596;-3.264;2023-08-06T08:53:57;1;1;
78063;PMS5003;67429;51.596;-3.264;2023-08-06T08:56:23;1;1;
78063;PMS5003;67429;51.596;-3.264;2023-08-06T08:58:48;2;1;
78063;PMS5003;67429;51.596;-3.264;2023-08-06T09:01:14;2;2;
78063;PMS5003;67429;51.596;-3.264;2023-08-06T09:03:39;0;0;
78063;PMS5003;67429;51.596;-3.264;2023-08-06T09:06:04;1;1;
78063;PMS5003;67429;51.596;-3.264;2023-08-06T09:08:31;0;0;
78063;PMS5003;67429;51.596;-3.264;2023-08-06T09:10:55;1;1;
78063;PMS5003;67429;51.596;-3.264;2023-08-06T09:13:21;1;1;
78063;PMS5003;67429;51.596;-3.264;2023-08-06T09:15:46;0;0;
78063;PMS5003;67429;51.596;-3.264;2023-08-06T09:18:12;1;1;
78063;PMS5003;67429;51.596;-3.264;2023-08-06T09:20:37;1;1;
78063;PMS5003;67429;51.596;-3.264;2023-08-06T09:23:06;1;1;
78063;PMS5003;67429;51.596;-3.264;2023-08-06T09:25:28;1;0;
78063;PMS5003;67429;51.596;-3.264;2023-08-06T09:27:54;0;0;
78063;PMS5003;67429;51.596;-3.264;2023-08-06T09:32:45;1;1;
78063;PMS5003;67429;51.596;-3.264;2023-08-06T09:35:13;2;2;
78063;PMS5003;67429;51.596;-3.264;2023-08-06T09:37:35;1;1;
78063;PMS5003;67429;51.596;-3.264;2023-08-06T09:40:01;1;1;
78063;PMS5003;67429;51.596;-3.264;2023-08-06T09:42:26;0;0;
78063;PMS5003;67429;51.596;-3.264;2023-08-06T09:44:52;0;0;
78063;PMS5003;67429;51.596;-3.264;2023-08-06T09:47:17;1;1;
78063;PMS5003;67429;51.596;-3.264;2023-08-06T09:49:43;0;0;
78063;PMS5003;67429;51.596;-3.264;2023-08-06T09:52:09;0;0;
78063;PMS5003;67429;51.596;-3.264;2023-08-06T09:54:34;1;1;
78063;PMS5003;67429;51.596;-3.264;2023-08-06T09:56:59;0;0;
78063;PMS5003;67429;51.596;-3.264;2023-08-06T09:59:25;1;1;
78063;PMS5003;67429;51.596;-3.264;2023-08-06T10:01:50;1;1;
78063;PMS5003;67429;51.596;-3.264;2023-08-06T10:04:16;1;1;
78063;PMS5003;67429;51.596;-3.264;2023-08-06T10:06:41;2;1;
78063;PMS5003;67429;51.596;-3.264;2023-08-06T10:09:06;0;0;
78063;PMS5003;67429;51.596;-3.264;2023-08-06T10:11:32;0;0;
78063;PMS5003;67429;51.596;-3.264;2023-08-06T10:14:00;2;2;
78063;PMS5003;67429;51.596;-3.264;2023-08-06T10:16:23;0;0;
78063;PMS5003;67429;51.596;-3.264;2023-08-06T10:18:48;1;1;
78063;PMS5003;67429;51.596;-3.264;2023-08-06T10:21:14;0;0;
78063;PMS5003;67429;51.596;-3.264;2023-08-06T10:23:40;0;0;
78063;PMS5003;67429;51.596;-3.264;2023-08-06T10:26:05;1;1;
78063;PMS5003;67429;51.596;-3.264;2023-08-06T10:28:33;1;1;
78063;PMS5003;67429;51.596;-3.264;2023-08-06T10:31:00;2;1;
78063;PMS5003;67429;51.596;-3.264;2023-08-06T10:33:21;0;0;
78063;PMS5003;67429;51.596;-3.264;2023-08-06T10:35:47;1;1;
78063;PMS5003;67429;51.596;-3.264;2023-08-06T10:38:14;1;1;
78063;PMS5003;67429;51.596;-3.264;2023-08-06T10:40:39;1;1;
78063;PMS5003;67429;51.596;-3.264;2023-08-06T10:43:03;0;0;
78063;PMS5003;67429;51.596;-3.264;2023-08-06T10:45:28;2;2;
78063;PMS5003;67429;51.596;-3.264;2023-08-06T10:47:54;0;0;
78063;PMS5003;67429;51.596;-3.264;2023-08-06T10:50:19;1;1;
78063;PMS5003;67429;51.596;-3.264;2023-08-06T10:52:45;2;2;
78063;PMS5003;67429;51.596;-3.264;2023-08-06T10:55:10;1;1;
78063;PMS5003;67429;51.596;-3.264;2023-08-06T10:57:35;1;1;
78063;PMS5003;67429;51.596;-3.264;2023-08-06T11:00:04;0;0;
78063;PMS5003;67429;51.596;-3.264;2023-08-06T11:02:33;1;1;
78063;PMS5003;67429;51.596;-3.264;2023-08-06T11:04:52;1;1;
78063;PMS5003;67429;51.596;-3.264;2023-08-06T11:07:17;3;1;
78063;PMS5003;67429;51.596;-3.264;2023-08-06T11:09:43;1;1;
78063;PMS5003;67429;51.596;-3.264;2023-08-06T11:12:09;1;1;
78063;PMS5003;67429;51.596;-3.264;2023-08-06T11:14:33;1;1;
78063;PMS5003;67429;51.596;-3.264;2023-08-06T11:16:59;1;1;
78063;PMS5003;67429;51.596;-3.264;2023-08-06T11:19:24;2;2;
78063;PMS5003;67429;51.596;-3.264;2023-08-06T11:21:50;1;1;
78063;PMS5003;67429;51.596;-3.264;2023-08-06T11:24:15;1;1;
78063;PMS5003;67429;51.596;-3.264;2023-08-06T11:31:31;1;1;
78063;PMS5003;67429;51.596;-3.264;2023-08-06T11:33:57;1;1;
78063;PMS5003;67429;51.596;-3.264;2023-08-06T11:36:30;3;2;
78063;PMS5003;67429;51.596;-3.264;2023-08-06T11:38:48;1;1;
78063;PMS5003;67429;51.596;-3.264;2023-08-06T11:41:13;1;1;
78063;PMS5003;67429;51.596;-3.264;2023-08-06T11:43:40;2;2;
78063;PMS5003;67429;51.596;-3.264;2023-08-06T11:46:05;1;0;
78063;PMS5003;67429;51.596;-3.264;2023-08-06T11:48:29;2;2;
78063;PMS5003;67429;51.596;-3.264;2023-08-06T11:50:56;0;0;
78063;PMS5003;67429;51.596;-3.264;2023-08-06T11:53:20;1;1;
78063;PMS5003;67429;51.596;-3.264;2023-08-06T11:55:45;0;0;
78063;PMS5003;67429;51.596;-3.264;2023-08-06T11:58:11;1;1;
78063;PMS5003;67429;51.596;-3.264;2023-08-06T12:00:38;0;0;
78063;PMS5003;67429;51.596;-3.264;2023-08-06T12:03:04;1;1;
78063;PMS5003;67429;51.596;-3.264;2023-08-06T12:05:29;0;0;
78063;PMS5003;67429;51.596;-3.264;2023-08-06T12:07:54;0;0;
78063;PMS5003;67429;51.596;-3.264;2023-08-06T12:10:18;3;1;
78063;PMS5003;67429;51.596;-3.264;2023-08-06T12:12:44;1;1;
78063;PMS5003;67429;51.596;-3.264;2023-08-06T12:15:09;0;0;
78063;PMS5003;67429;51.596;-3.264;2023-08-06T12:17:35;0;0;
78063;PMS5003;67429;51.596;-3.264;2023-08-06T12:20:00;1;1;
78063;PMS5003;67429;51.596;-3.264;2023-08-06T12:22:26;0;0;
78063;PMS5003;67429;51.596;-3.264;2023-08-06T12:24:51;1;1;
78063;PMS5003;67429;51.596;-3.264;2023-08-06T12:27:16;0;0;
78063;PMS5003;67429;51.596;-3.264;2023-08-06T12:29:42;2;1;
78063;PMS5003;67429;51.596;-3.264;2023-08-06T12:32:07;2;2;
78063;PMS5003;67429;51.596;-3.264;2023-08-06T12:34:32;2;2;
78063;PMS5003;67429;51.596;-3.264;2023-08-06T12:36:58;1;1;
78063;PMS5003;67429;51.596;-3.264;2023-08-06T12:39:23;0;0;
78063;PMS5003;67429;51.596;-3.264;2023-08-06T12:41:49;1;1;
78063;PMS5003;67429;51.596;-3.264;2023-08-06T12:44:14;0;0;
78063;PMS5003;67429;51.596;-3.264;2023-08-06T12:46:41;0;0;
78063;PMS5003;67429;51.596;-3.264;2023-08-06T12:49:05;1;1;
78063;PMS5003;67429;51.596;-3.264;2023-08-06T12:51:30;0;0;
78063;PMS5003;67429;51.596;-3.264;2023-08-06T12:53:56;0;0;
78063;PMS5003;67429;51.596;-3.264;2023-08-06T12:56:21;0;0;
78063;PMS5003;67429;51.596;-3.264;2023-08-06T12:58:47;1;1;
78063;PMS5003;67429;51.596;-3.264;2023-08-06T13:01:13;0;0;
78063;PMS5003;67429;51.596;-3.264;2023-08-06T13:03:37;1;1;
78063;PMS5003;67429;51.596;-3.264;2023-08-06T13:06:03;1;1;
78063;PMS5003;67429;51.596;-3.264;2023-08-06T13:08:28;1;1;
78063;PMS5003;67429;51.596;-3.264;2023-08-06T13:10:53;1;1;
78063;PMS5003;67429;51.596;-3.264;2023-08-06T13:13:19;0;0;
78063;PMS5003;67429;51.596;-3.264;2023-08-06T13:15:44;0;0;
78063;PMS5003;67429;51.596;-3.264;2023-08-06T13:18:11;0;0;
78063;PMS5003;67429;51.596;-3.264;2023-08-06T13:20:37;1;0;
78063;PMS5003;67429;51.596;-3.264;2023-08-06T13:23:01;1;1;
78063;PMS5003;67429;51.596;-3.264;2023-08-06T13:25:27;2;2;
78063;PMS5003;67429;51.596;-3.264;2023-08-06T13:27:51;1;1;
78063;PMS5003;67429;51.596;-3.264;2023-08-06T13:30:17;1;1;
78063;PMS5003;67429;51.596;-3.264;2023-08-06T13:32:42;1;1;
78063;PMS5003;67429;51.596;-3.264;2023-08-06T13:35:08;1;1;
78063;PMS5003;67429;51.596;-3.264;2023-08-06T13:37:33;2;2;
78063;PMS5003;67429;51.596;-3.264;2023-08-06T13:39:58;2;1;
78063;PMS5003;67429;51.596;-3.264;2023-08-06T13:42:25;1;1;
78063;PMS5003;67429;51.596;-3.264;2023-08-06T13:44:49;1;1;
78063;PMS5003;67429;51.596;-3.264;2023-08-06T13:47:15;1;1;
78063;PMS5003;67429;51.596;-3.264;2023-08-06T13:49:40;0;0;
78063;PMS5003;67429;51.596;-3.264;2023-08-06T13:52:06;0;0;
78063;PMS5003;67429;51.596;-3.264;2023-08-06T13:54:31;0;0;
78063;PMS5003;67429;51.596;-3.264;2023-08-06T13:56:56;1;1;
78063;PMS5003;67429;51.596;-3.264;2023-08-06T13:59:22;1;1;
78063;PMS5003;67429;51.596;-3.264;2023-08-06T14:01:47;1;1;
78063;PMS5003;67429;51.596;-3.264;2023-08-06T14:04:13;1;1;
78063;PMS5003;67429;51.596;-3.264;2023-08-06T14:06:38;0;0;
78063;PMS5003;67429;51.596;-3.264;2023-08-06T14:09:03;2;2;
78063;PMS5003;67429;51.596;-3.264;2023-08-06T14:11:29;0;0;
78063;PMS5003;67429;51.596;-3.264;2023-08-06T14:13:54;0;0;
78063;PMS5003;67429;51.596;-3.264;2023-08-06T14:16:19;1;0;
78063;PMS5003;67429;51.596;-3.264;2023-08-06T14:18:45;1;1;
78063;PMS5003;67429;51.596;-3.264;2023-08-06T14:21:10;1;1;
78063;PMS5003;67429;51.596;-3.264;2023-08-06T14:23:35;1;1;
78063;PMS5003;67429;51.596;-3.264;2023-08-06T14:26:01;0;0;
78063;PMS5003;67429;51.596;-3.264;2023-08-06T14:28:28;1;1;
78063;PMS5003;67429;51.596;-3.264;2023-08-06T14:30:52;1;1;
78063;PMS5003;67429;51.596;-3.264;2023-08-06T14:33:17;0;0;
78063;PMS5003;67429;51.596;-3.264;2023-08-06T14:35:43;1;1;
78063;PMS5003;67429;51.596;-3.264;2023-08-06T14:38:08;1;1;
78063;PMS5003;67429;51.596;-3.264;2023-08-06T14:40:33;2;1;
78063;PMS5003;67429;51.596;-3.264;2023-08-06T14:42:59;0;0;
78063;PMS5003;67429;51.596;-3.264;2023-08-06T14:45:24;1;1;
78063;PMS5003;67429;51.596;-3.264;2023-08-06T14:47:49;1;1;
78063;PMS5003;67429;51.596;-3.264;2023-08-06T14:50:15;1;1;
78063;PMS5003;67429;51.596;-3.264;2023-08-06T14:52:40;1;1;
78063;PMS5003;67429;51.596;-3.264;2023-08-06T14:55:06;1;1;
78063;PMS5003;67429;51.596;-3.264;2023-08-06T14:57:32;1;1;
78063;PMS5003;67429;51.596;-3.264;2023-08-06T14:59:56;1;1;
78063;PMS5003;67429;51.596;-3.264;2023-08-06T15:02:22;1;1;
78063;PMS5003;67429;51.596;-3.264;2023-08-06T15:04:49;1;1;
78063;PMS5003;67429;51.596;-3.264;2023-08-06T15:07:13;1;1;
78063;PMS5003;67429;51.596;-3.264;2023-08-06T15:09:39;1;1;
78063;PMS5003;67429;51.596;-3.264;2023-08-06T15:12:04;0;0;
78063;PMS5003;67429;51.596;-3.264;2023-08-06T15:14:31;1;1;
78063;PMS5003;67429;51.596;-3.264;2023-08-06T15:16:54;1;1;
78063;PMS5003;67429;51.596;-3.264;2023-08-06T15:19:20;2;1;
78063;PMS5003;67429;51.596;-3.264;2023-08-06T15:21:46;1;1;
78063;PMS5003;67429;51.596;-3.264;2023-08-06T15:24:10;1;1;
78063;PMS5003;67429;51.596;-3.264;2023-08-06T15:26:36;0;0;
78063;PMS5003;67429;51.596;-3.264;2023-08-06T15:29:01;1;1;
78063;PMS5003;67429;51.596;-3.264;2023-08-06T15:31:34;1;1;
78063;PMS5003;67429;51.596;-3.264;2023-08-06T15:33:52;1;1;
78063;PMS5003;67429;51.596;-3.264;2023-08-06T15:36:18;2;2;
78063;PMS5003;67429;51.596;-3.264;2023-08-06T15:38:43;1;1;
78063;PMS5003;67429;51.596;-3.264;2023-08-06T15:41:09;0;0;
78063;PMS5003;67429;51.596;-3.264;2023-08-06T15:43:34;2;2;
78063;PMS5003;67429;51.596;-3.264;2023-08-06T15:45:59;1;1;
78063;PMS5003;67429;51.596;-3.264;2023-08-06T15:48:25;2;2;
78063;PMS5003;67429;51.596;-3.264;2023-08-06T15:50:50;1;1;
78063;PMS5003;67429;51.596;-3.264;2023-08-06T15:53:15;1;1;
78063;PMS5003;67429;51.596;-3.264;2023-08-06T15:55:41;3;3;
78063;PMS5003;67429;51.596;-3.264;2023-08-06T15:58:06;2;2;
78063;PMS5003;67429;51.596;-3.264;2023-08-06T16:00:31;1;1;
78063;PMS5003;67429;51.596;-3.264;2023-08-06T16:02:59;1;1;
78063;PMS5003;67429;51.596;-3.264;2023-08-06T16:05:22;1;1;
78063;PMS5003;67429;51.596;-3.264;2023-08-06T16:07:49;1;1;
78063;PMS5003;67429;51.596;-3.264;2023-08-06T16:10:13;3;2;
78063;PMS5003;67429;51.596;-3.264;2023-08-06T16:12:38;1;1;
78063;PMS5003;67429;51.596;-3.264;2023-08-06T16:15:04;1;1;
78063;PMS5003;67429;51.596;-3.264;2023-08-06T16:17:29;2;2;
78063;PMS5003;67429;51.596;-3.264;2023-08-06T16:19:54;0;0;
78063;PMS5003;67429;51.596;-3.264;2023-08-06T16:22:20;1;1;
78063;PMS5003;67429;51.596;-3.264;2023-08-06T16:24:45;1;1;
78063;PMS5003;67429;51.596;-3.264;2023-08-06T16:27:10;0;0;